sensor_id;sensor_type;location;lat;lon;timestamp;P1;durP1;ratioP1;P2;durP2;ratioP2
74231;SDS011;62590;52.430;4.902;2022-09-01T00:02:22;2.30;;;0.80;;
74231;SDS011;62590;52.430;4.902;2022-09-01T00:04:51;3.72;;;1.38;;
74231;SDS011;62590;52.430;4.902;2022-09-01T00:07:21;4.05;;;0.77;;
74231;SDS011;62590;52.430;4.902;2022-09-01T00:09:46;6.88;;;0.95;;
74231;SDS011;62590;52.430;4.902;2022-09-01T00:12:12;6.55;;;1.60;;
74231;SDS011;62590;52.430;4.902;2022-09-01T00:14:38;3.88;;;1.30;;
74231;SDS011;62590;52.430;4.902;2022-09-01T00:17:06;3.65;;;0.95;;
74231;SDS011;62590;52.430;4.902;2022-09-01T00:19:33;6.13;;;1.20;;
74231;SDS011;62590;52.430;4.902;2022-09-01T00:22:00;2.97;;;1.02;;
74231;SDS011;62590;52.430;4.902;2022-09-01T00:24:27;3.90;;;1.30;;
74231;SDS011;62590;52.430;4.902;2022-09-01T00:26:53;3.60;;;1.58;;
74231;SDS011;62590;52.430;4.902;2022-09-01T00:29:20;5.32;;;1.00;;
74231;SDS011;62590;52.430;4.902;2022-09-01T00:31:46;3.33;;;1.02;;
74231;SDS011;62590;52.430;4.902;2022-09-01T00:34:11;10.68;;;1.13;;
74231;SDS011;62590;52.430;4.902;2022-09-01T00:36:37;5.53;;;1.15;;
74231;SDS011;62590;52.430;4.902;2022-09-01T00:39:03;2.53;;;0.90;;
74231;SDS011;62590;52.430;4.902;2022-09-01T00:41:31;2.65;;;1.20;;
74231;SDS011;62590;52.430;4.902;2022-09-01T00:43:59;4.03;;;1.50;;
74231;SDS011;62590;52.430;4.902;2022-09-01T00:46:37;4.00;;;1.23;;
74231;SDS011;62590;52.430;4.902;2022-09-01T00:49:12;2.58;;;1.10;;
74231;SDS011;62590;52.430;4.902;2022-09-01T00:51:46;10.02;;;1.85;;
74231;SDS011;62590;52.430;4.902;2022-09-01T00:54:16;4.95;;;1.92;;
74231;SDS011;62590;52.430;4.902;2022-09-01T00:56:45;5.38;;;1.33;;
74231;SDS011;62590;52.430;4.902;2022-09-01T00:59:12;5.63;;;1.33;;
74231;SDS011;62590;52.430;4.902;2022-09-01T01:01:39;3.88;;;1.15;;
74231;SDS011;62590;52.430;4.902;2022-09-01T01:04:05;6.82;;;1.20;;
74231;SDS011;62590;52.430;4.902;2022-09-01T01:06:38;3.45;;;1.85;;
74231;SDS011;62590;52.430;4.902;2022-09-01T01:09:27;6.32;;;1.88;;
74231;SDS011;62590;52.430;4.902;2022-09-01T01:11:57;3.28;;;1.77;;
74231;SDS011;62590;52.430;4.902;2022-09-01T01:14:24;1.88;;;1.00;;
74231;SDS011;62590;52.430;4.902;2022-09-01T01:16:56;4.90;;;1.48;;
74231;SDS011;62590;52.430;4.902;2022-09-01T01:22:14;3.35;;;1.20;;
74231;SDS011;62590;52.430;4.902;2022-09-01T01:25:12;8.23;;;1.13;;
74231;SDS011;62590;52.430;4.902;2022-09-01T01:27:38;3.28;;;1.35;;
74231;SDS011;62590;52.430;4.902;2022-09-01T01:30:07;6.13;;;1.52;;
74231;SDS011;62590;52.430;4.902;2022-09-01T01:32:36;4.28;;;1.70;;
74231;SDS011;62590;52.430;4.902;2022-09-01T01:35:06;18.33;;;1.60;;
74231;SDS011;62590;52.430;4.902;2022-09-01T01:37:36;2.88;;;1.13;;
74231;SDS011;62590;52.430;4.902;2022-09-01T01:40:03;3.97;;;1.08;;
74231;SDS011;62590;52.430;4.902;2022-09-01T01:42:31;3.60;;;1.10;;
74231;SDS011;62590;52.430;4.902;2022-09-01T01:44:57;6.10;;;1.70;;
74231;SDS011;62590;52.430;4.902;2022-09-01T01:47:22;4.70;;;1.42;;
74231;SDS011;62590;52.430;4.902;2022-09-01T01:49:47;5.03;;;1.50;;
74231;SDS011;62590;52.430;4.902;2022-09-01T01:52:13;3.20;;;1.80;;
74231;SDS011;62590;52.430;4.902;2022-09-01T01:54:42;4.63;;;1.42;;
74231;SDS011;62590;52.430;4.902;2022-09-01T01:57:10;2.83;;;1.15;;
74231;SDS011;62590;52.430;4.902;2022-09-01T01:59:36;4.25;;;1.77;;
74231;SDS011;62590;52.430;4.902;2022-09-01T02:02:04;5.85;;;1.60;;
74231;SDS011;62590;52.430;4.902;2022-09-01T02:04:33;7.60;;;1.92;;
74231;SDS011;62590;52.430;4.902;2022-09-01T02:06:59;3.20;;;1.27;;
74231;SDS011;62590;52.430;4.902;2022-09-01T02:09:25;3.95;;;1.67;;
74231;SDS011;62590;52.430;4.902;2022-09-01T02:11:51;2.53;;;1.08;;
74231;SDS011;62590;52.430;4.902;2022-09-01T02:14:20;5.00;;;1.15;;
74231;SDS011;62590;52.430;4.902;2022-09-01T02:16:45;4.70;;;1.60;;
74231;SDS011;62590;52.430;4.902;2022-09-01T02:19:11;7.88;;;1.90;;
74231;SDS011;62590;52.430;4.902;2022-09-01T02:21:36;5.07;;;1.58;;
74231;SDS011;62590;52.430;4.902;2022-09-01T02:24:03;2.85;;;1.25;;
74231;SDS011;62590;52.430;4.902;2022-09-01T02:26:39;4.25;;;1.42;;
74231;SDS011;62590;52.430;4.902;2022-09-01T02:29:12;4.35;;;1.60;;
74231;SDS011;62590;52.430;4.902;2022-09-01T02:31:43;2.88;;;1.50;;
74231;SDS011;62590;52.430;4.902;2022-09-01T02:34:10;1.30;;;0.90;;
74231;SDS011;62590;52.430;4.902;2022-09-01T02:36:38;4.07;;;1.20;;
74231;SDS011;62590;52.430;4.902;2022-09-01T02:39:08;2.85;;;1.30;;
74231;SDS011;62590;52.430;4.902;2022-09-01T02:41:34;3.10;;;1.05;;
74231;SDS011;62590;52.430;4.902;2022-09-01T02:44:01;6.47;;;1.50;;
74231;SDS011;62590;52.430;4.902;2022-09-01T02:46:28;2.15;;;1.30;;
74231;SDS011;62590;52.430;4.902;2022-09-01T02:48:54;4.20;;;1.40;;
74231;SDS011;62590;52.430;4.902;2022-09-01T02:51:21;3.47;;;1.52;;
74231;SDS011;62590;52.430;4.902;2022-09-01T02:53:52;2.83;;;1.20;;
74231;SDS011;62590;52.430;4.902;2022-09-01T02:56:19;5.82;;;1.60;;
74231;SDS011;62590;52.430;4.902;2022-09-01T02:58:46;6.88;;;2.38;;
74231;SDS011;62590;52.430;4.902;2022-09-01T03:01:13;6.82;;;1.20;;
74231;SDS011;62590;52.430;4.902;2022-09-01T03:03:48;2.65;;;1.20;;
74231;SDS011;62590;52.430;4.902;2022-09-01T03:06:17;3.58;;;1.30;;
74231;SDS011;62590;52.430;4.902;2022-09-01T03:08:44;2.38;;;1.15;;
74231;SDS011;62590;52.430;4.902;2022-09-01T03:11:10;4.90;;;1.10;;
74231;SDS011;62590;52.430;4.902;2022-09-01T03:13:36;9.52;;;1.40;;
74231;SDS011;62590;52.430;4.902;2022-09-01T03:16:03;5.18;;;1.17;;
74231;SDS011;62590;52.430;4.902;2022-09-01T03:18:30;3.95;;;1.10;;
74231;SDS011;62590;52.430;4.902;2022-09-01T03:20:55;7.85;;;1.10;;
74231;SDS011;62590;52.430;4.902;2022-09-01T03:23:21;2.70;;;1.00;;
74231;SDS011;62590;52.430;4.902;2022-09-01T03:25:49;2.42;;;1.00;;
74231;SDS011;62590;52.430;4.902;2022-09-01T03:28:15;4.82;;;1.50;;
74231;SDS011;62590;52.430;4.902;2022-09-01T03:30:44;5.40;;;1.60;;
74231;SDS011;62590;52.430;4.902;2022-09-01T03:33:13;2.35;;;1.13;;
74231;SDS011;62590;52.430;4.902;2022-09-01T03:35:40;1.95;;;1.05;;
74231;SDS011;62590;52.430;4.902;2022-09-01T03:38:06;2.33;;;1.10;;
74231;SDS011;62590;52.430;4.902;2022-09-01T03:40:32;5.13;;;1.45;;
74231;SDS011;62590;52.430;4.902;2022-09-01T03:43:04;3.45;;;1.40;;
74231;SDS011;62590;52.430;4.902;2022-09-01T03:45:34;4.32;;;1.52;;
74231;SDS011;62590;52.430;4.902;2022-09-01T03:48:02;3.65;;;1.45;;
74231;SDS011;62590;52.430;4.902;2022-09-01T03:50:33;12.18;;;1.63;;
74231;SDS011;62590;52.430;4.902;2022-09-01T03:53:03;5.35;;;1.20;;
74231;SDS011;62590;52.430;4.902;2022-09-01T03:55:30;2.80;;;0.90;;
74231;SDS011;62590;52.430;4.902;2022-09-01T03:57:59;4.80;;;2.00;;
74231;SDS011;62590;52.430;4.902;2022-09-01T04:00:31;6.25;;;1.52;;
74231;SDS011;62590;52.430;4.902;2022-09-01T04:03:00;4.15;;;1.48;;
74231;SDS011;62590;52.430;4.902;2022-09-01T04:05:27;4.78;;;1.60;;
74231;SDS011;62590;52.430;4.902;2022-09-01T04:07:55;3.63;;;1.80;;
74231;SDS011;62590;52.430;4.902;2022-09-01T04:10:21;2.40;;;1.30;;
74231;SDS011;62590;52.430;4.902;2022-09-01T04:12:48;3.42;;;1.20;;
74231;SDS011;62590;52.430;4.902;2022-09-01T04:15:14;4.10;;;1.55;;
74231;SDS011;62590;52.430;4.902;2022-09-01T04:17:44;1.80;;;1.27;;
74231;SDS011;62590;52.430;4.902;2022-09-01T04:20:28;5.32;;;1.42;;
74231;SDS011;62590;52.430;4.902;2022-09-01T04:25:35;5.78;;;1.40;;
74231;SDS011;62590;52.430;4.902;2022-09-01T04:28:02;5.00;;;1.40;;
74231;SDS011;62590;52.430;4.902;2022-09-01T04:30:37;3.28;;;1.33;;
74231;SDS011;62590;52.430;4.902;2022-09-01T04:33:04;8.07;;;1.52;;
74231;SDS011;62590;52.430;4.902;2022-09-01T04:35:40;4.63;;;1.40;;
74231;SDS011;62590;52.430;4.902;2022-09-01T04:38:05;3.63;;;1.20;;
74231;SDS011;62590;52.430;4.902;2022-09-01T04:40:35;3.50;;;1.48;;
74231;SDS011;62590;52.430;4.902;2022-09-01T04:43:03;2.25;;;1.45;;
74231;SDS011;62590;52.430;4.902;2022-09-01T04:45:29;3.72;;;1.60;;
74231;SDS011;62590;52.430;4.902;2022-09-01T04:47:55;3.42;;;1.33;;
74231;SDS011;62590;52.430;4.902;2022-09-01T04:50:20;3.58;;;1.30;;
74231;SDS011;62590;52.430;4.902;2022-09-01T04:52:47;7.47;;;1.48;;
74231;SDS011;62590;52.430;4.902;2022-09-01T04:55:13;3.03;;;1.30;;
74231;SDS011;62590;52.430;4.902;2022-09-01T04:57:42;6.22;;;1.15;;
74231;SDS011;62590;52.430;4.902;2022-09-01T05:00:16;4.25;;;1.42;;
74231;SDS011;62590;52.430;4.902;2022-09-01T05:02:53;5.63;;;1.40;;
74231;SDS011;62590;52.430;4.902;2022-09-01T05:05:27;12.00;;;1.80;;
74231;SDS011;62590;52.430;4.902;2022-09-01T05:07:53;5.47;;;1.55;;
74231;SDS011;62590;52.430;4.902;2022-09-01T05:10:19;3.80;;;1.30;;
74231;SDS011;62590;52.430;4.902;2022-09-01T05:12:46;3.88;;;1.70;;
74231;SDS011;62590;52.430;4.902;2022-09-01T05:15:13;3.80;;;1.50;;
74231;SDS011;62590;52.430;4.902;2022-09-01T05:17:39;3.67;;;1.52;;
74231;SDS011;62590;52.430;4.902;2022-09-01T05:20:05;7.75;;;1.52;;
74231;SDS011;62590;52.430;4.902;2022-09-01T05:22:31;2.30;;;1.20;;
74231;SDS011;62590;52.430;4.902;2022-09-01T05:24:58;5.55;;;1.60;;
74231;SDS011;62590;52.430;4.902;2022-09-01T05:27:28;4.28;;;1.73;;
74231;SDS011;62590;52.430;4.902;2022-09-01T05:29:55;3.83;;;1.50;;
74231;SDS011;62590;52.430;4.902;2022-09-01T05:32:24;6.68;;;1.73;;
74231;SDS011;62590;52.430;4.902;2022-09-01T05:34:51;3.40;;;1.42;;
74231;SDS011;62590;52.430;4.902;2022-09-01T05:37:17;3.90;;;1.55;;
74231;SDS011;62590;52.430;4.902;2022-09-01T05:39:44;5.78;;;1.55;;
74231;SDS011;62590;52.430;4.902;2022-09-01T05:42:09;4.55;;;1.60;;
74231;SDS011;62590;52.430;4.902;2022-09-01T05:44:35;6.18;;;1.45;;
74231;SDS011;62590;52.430;4.902;2022-09-01T05:47:03;3.53;;;1.70;;
74231;SDS011;62590;52.430;4.902;2022-09-01T05:49:30;2.35;;;1.48;;
74231;SDS011;62590;52.430;4.902;2022-09-01T05:51:57;4.10;;;1.27;;
74231;SDS011;62590;52.430;4.902;2022-09-01T05:54:23;4.57;;;1.80;;
74231;SDS011;62590;52.430;4.902;2022-09-01T05:56:51;3.00;;;1.42;;
74231;SDS011;62590;52.430;4.902;2022-09-01T05:59:19;4.43;;;1.60;;
74231;SDS011;62590;52.430;4.902;2022-09-01T06:01:45;3.40;;;1.35;;
74231;SDS011;62590;52.430;4.902;2022-09-01T06:04:12;2.90;;;1.60;;
74231;SDS011;62590;52.430;4.902;2022-09-01T06:06:39;3.92;;;1.35;;
74231;SDS011;62590;52.430;4.902;2022-09-01T06:09:10;1.83;;;1.13;;
74231;SDS011;62590;52.430;4.902;2022-09-01T06:11:37;2.15;;;1.17;;
74231;SDS011;62590;52.430;4.902;2022-09-01T06:14:03;5.80;;;1.40;;
74231;SDS011;62590;52.430;4.902;2022-09-01T06:16:30;7.40;;;1.85;;
74231;SDS011;62590;52.430;4.902;2022-09-01T06:18:56;4.85;;;1.58;;
74231;SDS011;62590;52.430;4.902;2022-09-01T06:21:23;4.00;;;1.58;;
74231;SDS011;62590;52.430;4.902;2022-09-01T06:23:50;4.82;;;1.42;;
74231;SDS011;62590;52.430;4.902;2022-09-01T06:26:20;3.47;;;1.52;;
74231;SDS011;62590;52.430;4.902;2022-09-01T06:28:51;2.45;;;1.50;;
74231;SDS011;62590;52.430;4.902;2022-09-01T06:31:19;5.40;;;1.92;;
74231;SDS011;62590;52.430;4.902;2022-09-01T06:33:47;2.90;;;1.52;;
74231;SDS011;62590;52.430;4.902;2022-09-01T06:36:18;3.15;;;1.35;;
74231;SDS011;62590;52.430;4.902;2022-09-01T06:38:45;2.35;;;1.52;;
74231;SDS011;62590;52.430;4.902;2022-09-01T06:41:11;2.47;;;1.50;;
74231;SDS011;62590;52.430;4.902;2022-09-01T06:43:37;2.42;;;1.60;;
74231;SDS011;62590;52.430;4.902;2022-09-01T06:46:05;3.97;;;1.70;;
74231;SDS011;62590;52.430;4.902;2022-09-01T06:48:33;2.63;;;1.80;;
74231;SDS011;62590;52.430;4.902;2022-09-01T06:51:04;9.90;;;2.00;;
74231;SDS011;62590;52.430;4.902;2022-09-01T06:53:31;5.05;;;1.85;;
74231;SDS011;62590;52.430;4.902;2022-09-01T06:55:58;6.18;;;1.58;;
74231;SDS011;62590;52.430;4.902;2022-09-01T06:58:24;4.03;;;1.60;;
74231;SDS011;62590;52.430;4.902;2022-09-01T07:00:49;4.32;;;1.80;;
74231;SDS011;62590;52.430;4.902;2022-09-01T07:03:15;2.67;;;1.98;;
74231;SDS011;62590;52.430;4.902;2022-09-01T07:05:45;5.82;;;2.17;;
74231;SDS011;62590;52.430;4.902;2022-09-01T07:08:12;4.40;;;1.27;;
74231;SDS011;62590;52.430;4.902;2022-09-01T07:10:44;6.63;;;1.98;;
74231;SDS011;62590;52.430;4.902;2022-09-01T07:13:18;3.97;;;1.80;;
74231;SDS011;62590;52.430;4.902;2022-09-01T07:18:19;2.35;;;1.60;;
74231;SDS011;62590;52.430;4.902;2022-09-01T07:20:46;1.85;;;1.33;;
74231;SDS011;62590;52.430;4.902;2022-09-01T07:23:13;8.02;;;1.60;;
74231;SDS011;62590;52.430;4.902;2022-09-01T07:25:42;3.78;;;1.50;;
74231;SDS011;62590;52.430;4.902;2022-09-01T07:28:10;3.65;;;1.67;;
74231;SDS011;62590;52.430;4.902;2022-09-01T07:30:44;2.20;;;1.48;;
74231;SDS011;62590;52.430;4.902;2022-09-01T07:33:12;4.78;;;1.77;;
74231;SDS011;62590;52.430;4.902;2022-09-01T07:35:39;5.72;;;1.50;;
74231;SDS011;62590;52.430;4.902;2022-09-01T07:38:06;3.28;;;1.75;;
74231;SDS011;62590;52.430;4.902;2022-09-01T07:40:33;5.07;;;1.88;;
74231;SDS011;62590;52.430;4.902;2022-09-01T07:43:06;7.20;;;1.92;;
74231;SDS011;62590;52.430;4.902;2022-09-01T07:45:40;2.38;;;1.40;;
74231;SDS011;62590;52.430;4.902;2022-09-01T07:48:09;6.72;;;1.90;;
74231;SDS011;62590;52.430;4.902;2022-09-01T07:50:35;3.60;;;1.90;;
74231;SDS011;62590;52.430;4.902;2022-09-01T07:53:02;4.80;;;2.08;;
74231;SDS011;62590;52.430;4.902;2022-09-01T07:55:28;5.00;;;1.73;;
74231;SDS011;62590;52.430;4.902;2022-09-01T07:57:55;5.05;;;1.80;;
74231;SDS011;62590;52.430;4.902;2022-09-01T08:00:22;6.60;;;2.13;;
74231;SDS011;62590;52.430;4.902;2022-09-01T08:02:47;6.50;;;1.58;;
74231;SDS011;62590;52.430;4.902;2022-09-01T08:05:15;4.93;;;1.98;;
74231;SDS011;62590;52.430;4.902;2022-09-01T08:07:43;4.30;;;1.80;;
74231;SDS011;62590;52.430;4.902;2022-09-01T08:10:11;4.32;;;1.90;;
74231;SDS011;62590;52.430;4.902;2022-09-01T08:12:36;7.72;;;2.38;;
74231;SDS011;62590;52.430;4.902;2022-09-01T08:15:03;4.15;;;1.67;;
74231;SDS011;62590;52.430;4.902;2022-09-01T08:17:30;2.13;;;1.40;;
74231;SDS011;62590;52.430;4.902;2022-09-01T08:19:55;7.38;;;1.88;;
74231;SDS011;62590;52.430;4.902;2022-09-01T08:22:21;6.00;;;2.08;;
74231;SDS011;62590;52.430;4.902;2022-09-01T08:24:48;5.95;;;1.77;;
74231;SDS011;62590;52.430;4.902;2022-09-01T08:27:14;5.63;;;1.98;;
74231;SDS011;62590;52.430;4.902;2022-09-01T08:29:39;12.10;;;2.25;;
74231;SDS011;62590;52.430;4.902;2022-09-01T08:32:05;6.20;;;1.92;;
74231;SDS011;62590;52.430;4.902;2022-09-01T08:34:31;6.13;;;2.35;;
74231;SDS011;62590;52.430;4.902;2022-09-01T08:36:57;3.53;;;2.13;;
74231;SDS011;62590;52.430;4.902;2022-09-01T08:39:22;2.88;;;1.75;;
74231;SDS011;62590;52.430;4.902;2022-09-01T08:47:15;2.65;;;1.42;;
74231;SDS011;62590;52.430;4.902;2022-09-01T08:49:43;6.03;;;1.77;;
74231;SDS011;62590;52.430;4.902;2022-09-01T08:52:14;7.07;;;1.55;;
74231;SDS011;62590;52.430;4.902;2022-09-01T08:54:54;4.75;;;1.40;;
74231;SDS011;62590;52.430;4.902;2022-09-01T08:57:32;2.92;;;1.50;;
74231;SDS011;62590;52.430;4.902;2022-09-01T08:59:59;8.15;;;1.92;;
74231;SDS011;62590;52.430;4.902;2022-09-01T09:08:16;6.72;;;2.08;;
74231;SDS011;62590;52.430;4.902;2022-09-01T09:18:53;4.55;;;1.50;;
74231;SDS011;62590;52.430;4.902;2022-09-01T09:21:37;6.00;;;1.30;;
74231;SDS011;62590;52.430;4.902;2022-09-01T09:24:25;5.78;;;2.22;;
74231;SDS011;62590;52.430;4.902;2022-09-01T09:26:52;3.13;;;1.42;;
74231;SDS011;62590;52.430;4.902;2022-09-01T09:29:20;3.35;;;1.20;;
74231;SDS011;62590;52.430;4.902;2022-09-01T09:31:46;4.70;;;1.30;;
74231;SDS011;62590;52.430;4.902;2022-09-01T09:40:30;7.47;;;1.17;;
74231;SDS011;62590;52.430;4.902;2022-09-01T09:42:34;2.15;;;1.02;;
74231;SDS011;62590;52.430;4.902;2022-09-01T09:45:04;6.70;;;1.00;;
74231;SDS011;62590;52.430;4.902;2022-09-01T09:47:39;9.18;;;1.17;;
74231;SDS011;62590;52.430;4.902;2022-09-01T09:50:48;2.53;;;0.75;;
74231;SDS011;62590;52.430;4.902;2022-09-01T09:53:10;3.22;;;1.23;;
74231;SDS011;62590;52.430;4.902;2022-09-01T09:55:51;1.25;;;0.90;;
74231;SDS011;62590;52.430;4.902;2022-09-01T09:58:39;3.22;;;1.10;;
74231;SDS011;62590;52.430;4.902;2022-09-01T10:06:30;1.23;;;0.90;;
74231;SDS011;62590;52.430;4.902;2022-09-01T10:08:59;6.38;;;1.20;;
74231;SDS011;62590;52.430;4.902;2022-09-01T10:11:37;1.73;;;0.63;;
74231;SDS011;62590;52.430;4.902;2022-09-01T10:16:58;2.83;;;0.80;;
74231;SDS011;62590;52.430;4.902;2022-09-01T10:19:51;6.60;;;0.80;;
74231;SDS011;62590;52.430;4.902;2022-09-01T10:22:19;4.18;;;1.00;;
74231;SDS011;62590;52.430;4.902;2022-09-01T10:24:47;3.38;;;0.70;;
74231;SDS011;62590;52.430;4.902;2022-09-01T10:27:26;1.02;;;0.73;;
74231;SDS011;62590;52.430;4.902;2022-09-01T10:32:34;2.00;;;0.85;;
74231;SDS011;62590;52.430;4.902;2022-09-01T10:35:03;3.20;;;1.17;;
74231;SDS011;62590;52.430;4.902;2022-09-01T10:37:31;2.58;;;0.82;;
74231;SDS011;62590;52.430;4.902;2022-09-01T10:42:52;1.33;;;0.77;;
74231;SDS011;62590;52.430;4.902;2022-09-01T10:45:33;1.38;;;0.60;;
74231;SDS011;62590;52.430;4.902;2022-09-01T10:53:38;3.00;;;1.00;;
74231;SDS011;62590;52.430;4.902;2022-09-01T10:56:15;1.27;;;0.80;;
74231;SDS011;62590;52.430;4.902;2022-09-01T11:04:11;3.85;;;0.68;;
74231;SDS011;62590;52.430;4.902;2022-09-01T11:09:39;2.53;;;0.70;;
74231;SDS011;62590;52.430;4.902;2022-09-01T11:15:01;1.75;;;0.70;;
74231;SDS011;62590;52.430;4.902;2022-09-01T11:20:22;5.63;;;1.08;;
74231;SDS011;62590;52.430;4.902;2022-09-01T11:23:02;1.75;;;0.70;;
74231;SDS011;62590;52.430;4.902;2022-09-01T11:28:09;1.40;;;1.00;;
74231;SDS011;62590;52.430;4.902;2022-09-01T11:30:58;2.60;;;0.45;;
74231;SDS011;62590;52.430;4.902;2022-09-01T11:39:01;1.45;;;0.70;;
74231;SDS011;62590;52.430;4.902;2022-09-01T11:46:44;3.65;;;0.75;;
74231;SDS011;62590;52.430;4.902;2022-09-01T11:49:22;1.92;;;0.60;;
74231;SDS011;62590;52.430;4.902;2022-09-01T11:51:52;0.70;;;0.35;;
74231;SDS011;62590;52.430;4.902;2022-09-01T11:54:18;3.72;;;0.68;;
74231;SDS011;62590;52.430;4.902;2022-09-01T11:56:44;1.85;;;1.00;;
74231;SDS011;62590;52.430;4.902;2022-09-01T11:59:09;3.45;;;0.57;;
74231;SDS011;62590;52.430;4.902;2022-09-01T12:01:35;1.45;;;0.40;;
74231;SDS011;62590;52.430;4.902;2022-09-01T12:06:58;2.38;;;0.43;;
74231;SDS011;62590;52.430;4.902;2022-09-01T12:09:36;0.47;;;0.40;;
74231;SDS011;62590;52.430;4.902;2022-09-01T12:12:06;0.60;;;0.45;;
74231;SDS011;62590;52.430;4.902;2022-09-01T12:14:33;0.60;;;0.50;;
74231;SDS011;62590;52.430;4.902;2022-09-01T12:16:59;7.47;;;1.13;;
74231;SDS011;62590;52.430;4.902;2022-09-01T12:19:31;2.83;;;0.55;;
74231;SDS011;62590;52.430;4.902;2022-09-01T12:22:02;0.65;;;0.40;;
74231;SDS011;62590;52.430;4.902;2022-09-01T12:24:37;2.10;;;0.60;;
74231;SDS011;62590;52.430;4.902;2022-09-01T12:27:02;0.63;;;0.40;;
74231;SDS011;62590;52.430;4.902;2022-09-01T12:29:29;3.17;;;0.50;;
74231;SDS011;62590;52.430;4.902;2022-09-01T12:31:55;0.50;;;0.50;;
74231;SDS011;62590;52.430;4.902;2022-09-01T12:37:19;4.38;;;0.77;;
74231;SDS011;62590;52.430;4.902;2022-09-01T12:39:47;2.97;;;0.60;;
74231;SDS011;62590;52.430;4.902;2022-09-01T12:44:44;1.83;;;0.43;;
74231;SDS011;62590;52.430;4.902;2022-09-01T12:50:04;3.88;;;0.65;;
74231;SDS011;62590;52.430;4.902;2022-09-01T12:52:31;4.00;;;0.80;;
74231;SDS011;62590;52.430;4.902;2022-09-01T12:57:31;2.60;;;0.80;;
74231;SDS011;62590;52.430;4.902;2022-09-01T13:05:28;2.78;;;0.65;;
74231;SDS011;62590;52.430;4.902;2022-09-01T13:07:59;1.63;;;0.65;;
74231;SDS011;62590;52.430;4.902;2022-09-01T13:10:27;2.33;;;0.55;;
74231;SDS011;62590;52.430;4.902;2022-09-01T13:12:58;1.02;;;0.50;;
74231;SDS011;62590;52.430;4.902;2022-09-01T13:15:24;0.93;;;0.52;;
74231;SDS011;62590;52.430;4.902;2022-09-01T13:17:50;0.93;;;0.50;;
74231;SDS011;62590;52.430;4.902;2022-09-01T13:20:18;2.47;;;0.55;;
74231;SDS011;62590;52.430;4.902;2022-09-01T13:22:44;1.58;;;0.55;;
74231;SDS011;62590;52.430;4.902;2022-09-01T13:25:11;0.70;;;0.50;;
74231;SDS011;62590;52.430;4.902;2022-09-01T13:27:37;1.48;;;0.60;;
74231;SDS011;62590;52.430;4.902;2022-09-01T13:30:08;2.58;;;0.50;;
74231;SDS011;62590;52.430;4.902;2022-09-01T13:32:35;1.42;;;0.52;;
74231;SDS011;62590;52.430;4.902;2022-09-01T13:35:00;1.48;;;0.50;;
74231;SDS011;62590;52.430;4.902;2022-09-01T13:37:26;3.08;;;0.60;;
74231;SDS011;62590;52.430;4.902;2022-09-01T13:39:51;3.90;;;0.98;;
74231;SDS011;62590;52.430;4.902;2022-09-01T13:42:16;1.52;;;0.50;;
74231;SDS011;62590;52.430;4.902;2022-09-01T13:44:42;2.35;;;0.52;;
74231;SDS011;62590;52.430;4.902;2022-09-01T13:47:08;1.40;;;0.77;;
74231;SDS011;62590;52.430;4.902;2022-09-01T13:49:34;1.60;;;0.63;;
74231;SDS011;62590;52.430;4.902;2022-09-01T13:51:59;1.85;;;0.70;;
74231;SDS011;62590;52.430;4.902;2022-09-01T13:54:25;3.13;;;1.10;;
74231;SDS011;62590;52.430;4.902;2022-09-01T13:56:50;1.95;;;0.90;;
74231;SDS011;62590;52.430;4.902;2022-09-01T13:59:16;1.20;;;0.50;;
74231;SDS011;62590;52.430;4.902;2022-09-01T14:01:41;1.60;;;0.57;;
74231;SDS011;62590;52.430;4.902;2022-09-01T14:04:06;4.97;;;0.70;;
74231;SDS011;62590;52.430;4.902;2022-09-01T14:06:37;1.77;;;0.70;;
74231;SDS011;62590;52.430;4.902;2022-09-01T14:09:04;3.17;;;0.68;;
74231;SDS011;62590;52.430;4.902;2022-09-01T14:11:29;1.73;;;0.85;;
74231;SDS011;62590;52.430;4.902;2022-09-01T14:13:56;1.52;;;0.60;;
74231;SDS011;62590;52.430;4.902;2022-09-01T14:16:21;2.60;;;0.85;;
74231;SDS011;62590;52.430;4.902;2022-09-01T14:18:46;0.85;;;0.60;;
74231;SDS011;62590;52.430;4.902;2022-09-01T14:21:13;2.45;;;0.50;;
74231;SDS011;62590;52.430;4.902;2022-09-01T14:23:40;3.97;;;0.55;;
74231;SDS011;62590;52.430;4.902;2022-09-01T14:26:07;0.52;;;0.50;;
74231;SDS011;62590;52.430;4.902;2022-09-01T14:28:35;3.53;;;0.95;;
74231;SDS011;62590;52.430;4.902;2022-09-01T14:31:05;1.15;;;0.60;;
74231;SDS011;62590;52.430;4.902;2022-09-01T14:33:32;3.72;;;0.80;;
74231;SDS011;62590;52.430;4.902;2022-09-01T14:35:58;2.55;;;0.50;;
74231;SDS011;62590;52.430;4.902;2022-09-01T14:38:23;2.65;;;0.50;;
74231;SDS011;62590;52.430;4.902;2022-09-01T14:40:49;1.52;;;0.60;;
74231;SDS011;62590;52.430;4.902;2022-09-01T14:43:15;7.32;;;0.82;;
74231;SDS011;62590;52.430;4.902;2022-09-01T14:45:41;1.20;;;0.50;;
74231;SDS011;62590;52.430;4.902;2022-09-01T14:48:12;3.53;;;0.77;;
74231;SDS011;62590;52.430;4.902;2022-09-01T14:50:42;3.10;;;0.73;;
74231;SDS011;62590;52.430;4.902;2022-09-01T14:53:10;1.73;;;0.60;;
74231;SDS011;62590;52.430;4.902;2022-09-01T14:55:36;2.53;;;0.60;;
74231;SDS011;62590;52.430;4.902;2022-09-01T14:58:02;1.35;;;0.38;;
74231;SDS011;62590;52.430;4.902;2022-09-01T15:00:28;2.55;;;0.70;;
74231;SDS011;62590;52.430;4.902;2022-09-01T15:02:56;2.72;;;0.70;;
74231;SDS011;62590;52.430;4.902;2022-09-01T15:05:22;3.20;;;0.82;;
74231;SDS011;62590;52.430;4.902;2022-09-01T15:07:51;4.60;;;0.88;;
74231;SDS011;62590;52.430;4.902;2022-09-01T15:10:20;1.05;;;0.60;;
74231;SDS011;62590;52.430;4.902;2022-09-01T15:12:47;2.95;;;0.80;;
74231;SDS011;62590;52.430;4.902;2022-09-01T15:15:14;1.40;;;0.77;;
74231;SDS011;62590;52.430;4.902;2022-09-01T15:17:39;2.45;;;0.60;;
74231;SDS011;62590;52.430;4.902;2022-09-01T15:20:05;1.23;;;0.50;;
74231;SDS011;62590;52.430;4.902;2022-09-01T15:23:00;5.75;;;0.77;;
74231;SDS011;62590;52.430;4.902;2022-09-01T15:25:26;1.40;;;0.60;;
74231;SDS011;62590;52.430;4.902;2022-09-01T15:27:51;0.75;;;0.50;;
74231;SDS011;62590;52.430;4.902;2022-09-01T15:30:17;3.45;;;0.70;;
74231;SDS011;62590;52.430;4.902;2022-09-01T15:32:44;3.97;;;1.05;;
74231;SDS011;62590;52.430;4.902;2022-09-01T15:35:12;1.38;;;0.60;;
74231;SDS011;62590;52.430;4.902;2022-09-01T15:37:38;2.67;;;0.70;;
74231;SDS011;62590;52.430;4.902;2022-09-01T15:40:04;2.92;;;0.80;;
74231;SDS011;62590;52.430;4.902;2022-09-01T15:42:32;1.63;;;0.77;;
74231;SDS011;62590;52.430;4.902;2022-09-01T15:45:02;7.63;;;1.00;;
74231;SDS011;62590;52.430;4.902;2022-09-01T15:47:32;1.30;;;0.70;;
74231;SDS011;62590;52.430;4.902;2022-09-01T15:49:58;5.25;;;0.60;;
74231;SDS011;62590;52.430;4.902;2022-09-01T15:52:23;2.97;;;0.65;;
74231;SDS011;62590;52.430;4.902;2022-09-01T15:54:49;1.63;;;0.88;;
74231;SDS011;62590;52.430;4.902;2022-09-01T15:57:14;0.98;;;0.70;;
74231;SDS011;62590;52.430;4.902;2022-09-01T15:59:40;1.83;;;0.75;;
74231;SDS011;62590;52.430;4.902;2022-09-01T16:02:07;0.65;;;0.50;;
74231;SDS011;62590;52.430;4.902;2022-09-01T16:04:34;1.95;;;0.70;;
74231;SDS011;62590;52.430;4.902;2022-09-01T16:07:00;3.10;;;0.60;;
74231;SDS011;62590;52.430;4.902;2022-09-01T16:09:26;2.40;;;0.88;;
74231;SDS011;62590;52.430;4.902;2022-09-01T16:11:51;1.55;;;0.65;;
74231;SDS011;62590;52.430;4.902;2022-09-01T16:14:18;2.25;;;0.70;;
74231;SDS011;62590;52.430;4.902;2022-09-01T16:22:27;3.05;;;0.60;;
74231;SDS011;62590;52.430;4.902;2022-09-01T16:24:58;3.25;;;0.77;;
74231;SDS011;62590;52.430;4.902;2022-09-01T16:27:35;1.63;;;0.60;;
74231;SDS011;62590;52.430;4.902;2022-09-01T16:30:06;0.90;;;0.65;;
74231;SDS011;62590;52.430;4.902;2022-09-01T16:32:42;2.15;;;0.57;;
74231;SDS011;62590;52.430;4.902;2022-09-01T16:35:09;3.13;;;0.70;;
74231;SDS011;62590;52.430;4.902;2022-09-01T16:51:44;1.58;;;0.47;;
74231;SDS011;62590;52.430;4.902;2022-09-01T16:54:14;3.05;;;0.60;;
74231;SDS011;62590;52.430;4.902;2022-09-01T17:07:48;1.33;;;0.70;;